sensor_id;sensor_type;location;lat;lon;timestamp;P1;durP1;ratioP1;P2;durP2;ratioP2
67514;SDS011;60646;55.802;37.032;2023-05-10T00:01:40;6.63;;;3.13;;
67514;SDS011;60646;55.802;37.032;2023-05-10T00:04:06;7.80;;;3.30;;
67514;SDS011;60646;55.802;37.032;2023-05-10T00:06:33;7.00;;;3.72;;
67514;SDS011;60646;55.802;37.032;2023-05-10T00:09:00;5.00;;;3.00;;
67514;SDS011;60646;55.802;37.032;2023-05-10T00:11:26;5.82;;;3.08;;
67514;SDS011;60646;55.802;37.032;2023-05-10T00:13:52;6.93;;;3.42;;
67514;SDS011;60646;55.802;37.032;2023-05-10T00:16:22;5.57;;;3.17;;
67514;SDS011;60646;55.802;37.032;2023-05-10T00:18:48;6.38;;;3.20;;
67514;SDS011;60646;55.802;37.032;2023-05-10T00:21:16;5.97;;;3.13;;
67514;SDS011;60646;55.802;37.032;2023-05-10T00:23:44;6.07;;;3.17;;
67514;SDS011;60646;55.802;37.032;2023-05-10T00:26:10;6.15;;;3.15;;
67514;SDS011;60646;55.802;37.032;2023-05-10T00:28:39;6.75;;;3.10;;
67514;SDS011;60646;55.802;37.032;2023-05-10T00:31:05;7.40;;;3.45;;
67514;SDS011;60646;55.802;37.032;2023-05-10T00:33:31;6.18;;;3.30;;
67514;SDS011;60646;55.802;37.032;2023-05-10T00:35:57;5.68;;;3.05;;
67514;SDS011;60646;55.802;37.032;2023-05-10T00:38:23;6.50;;;3.38;;
67514;SDS011;60646;55.802;37.032;2023-05-10T00:40:49;6.13;;;3.00;;
67514;SDS011;60646;55.802;37.032;2023-05-10T00:43:24;6.30;;;2.92;;
67514;SDS011;60646;55.802;37.032;2023-05-10T00:45:50;7.38;;;3.20;;
67514;SDS011;60646;55.802;37.032;2023-05-10T00:48:16;6.07;;;3.30;;
67514;SDS011;60646;55.802;37.032;2023-05-10T00:50:42;9.52;;;3.22;;
67514;SDS011;60646;55.802;37.032;2023-05-10T00:53:08;6.00;;;3.47;;
67514;SDS011;60646;55.802;37.032;2023-05-10T00:55:34;5.15;;;3.35;;
67514;SDS011;60646;55.802;37.032;2023-05-10T00:58:00;5.28;;;2.83;;
67514;SDS011;60646;55.802;37.032;2023-05-10T01:00:27;6.85;;;2.78;;
67514;SDS011;60646;55.802;37.032;2023-05-10T01:02:53;6.32;;;2.63;;
67514;SDS011;60646;55.802;37.032;2023-05-10T01:05:20;5.75;;;3.20;;
67514;SDS011;60646;55.802;37.032;2023-05-10T01:07:46;4.40;;;2.70;;
67514;SDS011;60646;55.802;37.032;2023-05-10T01:10:12;4.97;;;3.08;;
67514;SDS011;60646;55.802;37.032;2023-05-10T01:12:39;4.65;;;2.95;;
67514;SDS011;60646;55.802;37.032;2023-05-10T01:15:06;4.97;;;3.15;;
67514;SDS011;60646;55.802;37.032;2023-05-10T01:17:34;5.95;;;3.35;;
67514;SDS011;60646;55.802;37.032;2023-05-10T01:20:03;5.97;;;3.08;;
67514;SDS011;60646;55.802;37.032;2023-05-10T01:31:47;6.85;;;3.10;;
67514;SDS011;60646;55.802;37.032;2023-05-10T01:34:16;6.60;;;3.20;;
67514;SDS011;60646;55.802;37.032;2023-05-10T01:36:58;8.27;;;3.88;;
67514;SDS011;60646;55.802;37.032;2023-05-10T01:42:21;6.78;;;3.60;;
67514;SDS011;60646;55.802;37.032;2023-05-10T01:45:00;5.30;;;3.13;;
67514;SDS011;60646;55.802;37.032;2023-05-10T01:50:22;6.03;;;3.30;;
67514;SDS011;60646;55.802;37.032;2023-05-10T01:52:55;6.40;;;3.30;;
67514;SDS011;60646;55.802;37.032;2023-05-10T01:55:24;6.13;;;2.92;;
67514;SDS011;60646;55.802;37.032;2023-05-10T01:57:59;8.35;;;3.35;;
67514;SDS011;60646;55.802;37.032;2023-05-10T02:00:28;6.15;;;3.40;;
67514;SDS011;60646;55.802;37.032;2023-05-10T02:02:56;4.90;;;3.10;;
67514;SDS011;60646;55.802;37.032;2023-05-10T02:05:23;5.53;;;2.88;;
67514;SDS011;60646;55.802;37.032;2023-05-10T02:07:50;4.95;;;3.17;;
67514;SDS011;60646;55.802;37.032;2023-05-10T02:10:17;5.80;;;3.65;;
67514;SDS011;60646;55.802;37.032;2023-05-10T02:12:47;6.07;;;3.22;;
67514;SDS011;60646;55.802;37.032;2023-05-10T02:15:16;6.68;;;3.40;;
67514;SDS011;60646;55.802;37.032;2023-05-10T02:17:46;7.35;;;3.05;;
67514;SDS011;60646;55.802;37.032;2023-05-10T02:20:13;5.53;;;3.30;;
67514;SDS011;60646;55.802;37.032;2023-05-10T02:22:40;6.20;;;3.03;;
67514;SDS011;60646;55.802;37.032;2023-05-10T02:25:07;6.45;;;3.00;;
67514;SDS011;60646;55.802;37.032;2023-05-10T02:27:36;6.28;;;3.10;;
67514;SDS011;60646;55.802;37.032;2023-05-10T02:30:02;5.65;;;3.47;;
67514;SDS011;60646;55.802;37.032;2023-05-10T02:32:31;5.25;;;3.05;;
67514;SDS011;60646;55.802;37.032;2023-05-10T02:34:57;4.97;;;2.85;;
67514;SDS011;60646;55.802;37.032;2023-05-10T02:37:25;5.70;;;2.70;;
67514;SDS011;60646;55.802;37.032;2023-05-10T02:39:54;5.50;;;2.88;;
67514;SDS011;60646;55.802;37.032;2023-05-10T02:42:23;7.90;;;3.38;;
67514;SDS011;60646;55.802;37.032;2023-05-10T02:44:52;5.97;;;3.22;;
67514;SDS011;60646;55.802;37.032;2023-05-10T02:47:21;5.55;;;3.30;;
67514;SDS011;60646;55.802;37.032;2023-05-10T02:49:48;7.35;;;3.05;;
67514;SDS011;60646;55.802;37.032;2023-05-10T02:52:15;4.88;;;3.15;;
67514;SDS011;60646;55.802;37.032;2023-05-10T02:54:45;4.78;;;3.42;;
67514;SDS011;60646;55.802;37.032;2023-05-10T02:57:15;6.57;;;3.88;;
67514;SDS011;60646;55.802;37.032;2023-05-10T02:59:45;4.70;;;3.45;;
67514;SDS011;60646;55.802;37.032;2023-05-10T03:02:12;4.25;;;2.97;;
67514;SDS011;60646;55.802;37.032;2023-05-10T03:04:38;5.50;;;3.45;;
67514;SDS011;60646;55.802;37.032;2023-05-10T03:07:04;5.00;;;3.10;;
67514;SDS011;60646;55.802;37.032;2023-05-10T03:09:31;6.65;;;3.05;;
67514;SDS011;60646;55.802;37.032;2023-05-10T03:12:03;6.00;;;2.97;;
67514;SDS011;60646;55.802;37.032;2023-05-10T03:14:52;4.22;;;2.90;;
67514;SDS011;60646;55.802;37.032;2023-05-10T03:17:39;6.38;;;3.63;;
67514;SDS011;60646;55.802;37.032;2023-05-10T03:20:16;7.00;;;3.50;;
67514;SDS011;60646;55.802;37.032;2023-05-10T03:22:53;4.93;;;3.63;;
67514;SDS011;60646;55.802;37.032;2023-05-10T03:25:28;5.80;;;3.03;;
67514;SDS011;60646;55.802;37.032;2023-05-10T03:27:57;5.47;;;3.25;;
67514;SDS011;60646;55.802;37.032;2023-05-10T03:30:25;9.82;;;3.80;;
67514;SDS011;60646;55.802;37.032;2023-05-10T03:32:51;10.88;;;3.85;;
67514;SDS011;60646;55.802;37.032;2023-05-10T03:35:17;5.55;;;3.22;;
67514;SDS011;60646;55.802;37.032;2023-05-10T03:37:44;6.32;;;3.60;;
67514;SDS011;60646;55.802;37.032;2023-05-10T03:40:10;8.05;;;3.42;;
67514;SDS011;60646;55.802;37.032;2023-05-10T03:42:38;7.18;;;3.60;;
67514;SDS011;60646;55.802;37.032;2023-05-10T03:45:05;6.00;;;3.60;;
67514;SDS011;60646;55.802;37.032;2023-05-10T03:47:32;5.93;;;3.35;;
67514;SDS011;60646;55.802;37.032;2023-05-10T03:49:58;6.30;;;3.35;;
67514;SDS011;60646;55.802;37.032;2023-05-10T03:52:24;9.13;;;3.40;;
67514;SDS011;60646;55.802;37.032;2023-05-10T03:54:50;6.47;;;3.40;;
67514;SDS011;60646;55.802;37.032;2023-05-10T03:57:17;7.78;;;3.72;;
67514;SDS011;60646;55.802;37.032;2023-05-10T03:59:43;5.35;;;3.30;;
67514;SDS011;60646;55.802;37.032;2023-05-10T04:02:09;6.95;;;3.47;;
67514;SDS011;60646;55.802;37.032;2023-05-10T04:04:35;6.53;;;3.25;;
67514;SDS011;60646;55.802;37.032;2023-05-10T04:07:01;5.65;;;3.30;;
67514;SDS011;60646;55.802;37.032;2023-05-10T04:09:28;7.03;;;3.38;;
67514;SDS011;60646;55.802;37.032;2023-05-10T04:11:54;6.53;;;3.60;;
67514;SDS011;60646;55.802;37.032;2023-05-10T04:14:20;5.13;;;3.28;;
67514;SDS011;60646;55.802;37.032;2023-05-10T04:16:46;7.90;;;3.30;;
67514;SDS011;60646;55.802;37.032;2023-05-10T04:19:12;5.95;;;3.22;;
67514;SDS011;60646;55.802;37.032;2023-05-10T04:21:37;6.50;;;3.00;;
67514;SDS011;60646;55.802;37.032;2023-05-10T04:24:03;6.93;;;2.90;;
67514;SDS011;60646;55.802;37.032;2023-05-10T04:26:30;5.15;;;3.03;;
67514;SDS011;60646;55.802;37.032;2023-05-10T04:28:56;5.25;;;3.22;;
67514;SDS011;60646;55.802;37.032;2023-05-10T04:31:22;5.43;;;2.83;;
67514;SDS011;60646;55.802;37.032;2023-05-10T04:33:48;7.88;;;3.03;;
67514;SDS011;60646;55.802;37.032;2023-05-10T04:36:15;6.25;;;2.80;;
67514;SDS011;60646;55.802;37.032;2023-05-10T04:38:41;3.88;;;2.70;;
67514;SDS011;60646;55.802;37.032;2023-05-10T04:41:08;5.25;;;2.63;;
67514;SDS011;60646;55.802;37.032;2023-05-10T04:43:36;8.00;;;2.85;;
67514;SDS011;60646;55.802;37.032;2023-05-10T04:46:03;5.60;;;2.75;;
67514;SDS011;60646;55.802;37.032;2023-05-10T04:48:29;4.78;;;2.58;;
67514;SDS011;60646;55.802;37.032;2023-05-10T04:50:55;5.20;;;2.58;;
67514;SDS011;60646;55.802;37.032;2023-05-10T04:53:22;4.80;;;2.38;;
67514;SDS011;60646;55.802;37.032;2023-05-10T04:55:48;6.10;;;2.90;;
67514;SDS011;60646;55.802;37.032;2023-05-10T04:58:14;4.57;;;2.70;;
67514;SDS011;60646;55.802;37.032;2023-05-10T05:00:40;7.57;;;2.50;;
67514;SDS011;60646;55.802;37.032;2023-05-10T05:03:07;4.72;;;2.42;;
67514;SDS011;60646;55.802;37.032;2023-05-10T05:05:33;5.18;;;2.65;;
67514;SDS011;60646;55.802;37.032;2023-05-10T05:07:59;5.97;;;2.28;;
67514;SDS011;60646;55.802;37.032;2023-05-10T05:10:25;6.90;;;3.20;;
67514;SDS011;60646;55.802;37.032;2023-05-10T05:12:53;3.55;;;2.22;;
67514;SDS011;60646;55.802;37.032;2023-05-10T05:15:19;6.38;;;2.58;;
67514;SDS011;60646;55.802;37.032;2023-05-10T05:17:45;3.50;;;2.25;;
67514;SDS011;60646;55.802;37.032;2023-05-10T05:20:10;4.97;;;2.25;;
67514;SDS011;60646;55.802;37.032;2023-05-10T05:22:36;6.30;;;3.35;;
67514;SDS011;60646;55.802;37.032;2023-05-10T05:25:03;4.80;;;1.98;;
67514;SDS011;60646;55.802;37.032;2023-05-10T05:27:32;4.30;;;2.70;;
67514;SDS011;60646;55.802;37.032;2023-05-10T05:29:58;5.65;;;2.35;;
67514;SDS011;60646;55.802;37.032;2023-05-10T05:32:25;4.03;;;2.17;;
67514;SDS011;60646;55.802;37.032;2023-05-10T05:34:51;6.13;;;3.70;;
67514;SDS011;60646;55.802;37.032;2023-05-10T05:37:19;5.65;;;3.28;;
67514;SDS011;60646;55.802;37.032;2023-05-10T05:39:47;4.75;;;2.45;;
67514;SDS011;60646;55.802;37.032;2023-05-10T05:42:14;4.03;;;2.25;;
67514;SDS011;60646;55.802;37.032;2023-05-10T05:44:41;4.65;;;2.40;;
67514;SDS011;60646;55.802;37.032;2023-05-10T05:47:07;6.25;;;2.33;;
67514;SDS011;60646;55.802;37.032;2023-05-10T05:49:34;3.35;;;1.95;;
67514;SDS011;60646;55.802;37.032;2023-05-10T05:52:00;5.18;;;2.72;;
67514;SDS011;60646;55.802;37.032;2023-05-10T05:54:27;3.67;;;1.80;;
67514;SDS011;60646;55.802;37.032;2023-05-10T05:56:54;3.33;;;2.05;;
67514;SDS011;60646;55.802;37.032;2023-05-10T05:59:21;5.75;;;2.20;;
67514;SDS011;60646;55.802;37.032;2023-05-10T06:01:48;3.15;;;1.88;;
67514;SDS011;60646;55.802;37.032;2023-05-10T06:04:14;4.45;;;2.08;;
67514;SDS011;60646;55.802;37.032;2023-05-10T06:06:40;3.80;;;1.98;;
67514;SDS011;60646;55.802;37.032;2023-05-10T06:09:06;3.22;;;2.00;;
67514;SDS011;60646;55.802;37.032;2023-05-10T06:11:32;4.20;;;1.90;;
67514;SDS011;60646;55.802;37.032;2023-05-10T06:13:58;2.95;;;1.58;;
67514;SDS011;60646;55.802;37.032;2023-05-10T06:16:24;4.38;;;2.28;;
67514;SDS011;60646;55.802;37.032;2023-05-10T06:18:50;3.90;;;2.00;;
67514;SDS011;60646;55.802;37.032;2023-05-10T06:21:17;2.95;;;1.63;;
67514;SDS011;60646;55.802;37.032;2023-05-10T06:23:44;2.50;;;1.50;;
67514;SDS011;60646;55.802;37.032;2023-05-10T06:26:09;2.25;;;1.42;;
67514;SDS011;60646;55.802;37.032;2023-05-10T06:28:35;2.05;;;1.38;;
67514;SDS011;60646;55.802;37.032;2023-05-10T06:31:04;2.92;;;1.42;;
67514;SDS011;60646;55.802;37.032;2023-05-10T06:33:30;2.42;;;1.30;;
67514;SDS011;60646;55.802;37.032;2023-05-10T06:35:57;2.13;;;1.40;;
67514;SDS011;60646;55.802;37.032;2023-05-10T06:38:24;2.35;;;1.60;;
67514;SDS011;60646;55.802;37.032;2023-05-10T06:40:50;3.42;;;1.48;;
67514;SDS011;60646;55.802;37.032;2023-05-10T06:43:17;2.97;;;1.67;;
67514;SDS011;60646;55.802;37.032;2023-05-10T06:45:43;2.13;;;1.55;;
67514;SDS011;60646;55.802;37.032;2023-05-10T06:48:09;3.58;;;1.83;;
67514;SDS011;60646;55.802;37.032;2023-05-10T06:50:35;2.03;;;1.52;;
67514;SDS011;60646;55.802;37.032;2023-05-10T06:53:01;2.50;;;1.10;;
67514;SDS011;60646;55.802;37.032;2023-05-10T06:55:27;2.83;;;1.30;;
67514;SDS011;60646;55.802;37.032;2023-05-10T06:57:55;2.28;;;1.30;;
67514;SDS011;60646;55.802;37.032;2023-05-10T07:00:21;3.53;;;1.25;;
67514;SDS011;60646;55.802;37.032;2023-05-10T07:02:47;4.95;;;1.40;;
67514;SDS011;60646;55.802;37.032;2023-05-10T07:05:13;2.97;;;1.17;;
67514;SDS011;60646;55.802;37.032;2023-05-10T07:07:40;3.92;;;1.42;;
67514;SDS011;60646;55.802;37.032;2023-05-10T07:10:08;3.13;;;1.40;;
67514;SDS011;60646;55.802;37.032;2023-05-10T07:12:35;3.47;;;1.40;;
67514;SDS011;60646;55.802;37.032;2023-05-10T07:15:01;2.20;;;1.13;;
67514;SDS011;60646;55.802;37.032;2023-05-10T07:17:28;1.40;;;0.98;;
67514;SDS011;60646;55.802;37.032;2023-05-10T07:19:54;2.85;;;1.00;;
67514;SDS011;60646;55.802;37.032;2023-05-10T07:22:19;1.80;;;1.00;;
67514;SDS011;60646;55.802;37.032;2023-05-10T07:24:45;1.73;;;1.20;;
67514;SDS011;60646;55.802;37.032;2023-05-10T07:27:12;4.40;;;1.20;;
67514;SDS011;60646;55.802;37.032;2023-05-10T07:29:38;2.95;;;1.30;;
67514;SDS011;60646;55.802;37.032;2023-05-10T07:32:04;1.45;;;1.10;;
67514;SDS011;60646;55.802;37.032;2023-05-10T07:34:31;1.85;;;1.10;;
67514;SDS011;60646;55.802;37.032;2023-05-10T07:37:00;1.83;;;1.02;;
67514;SDS011;60646;55.802;37.032;2023-05-10T07:39:28;3.00;;;1.25;;
67514;SDS011;60646;55.802;37.032;2023-05-10T07:41:54;1.38;;;1.10;;
67514;SDS011;60646;55.802;37.032;2023-05-10T07:44:21;2.25;;;0.82;;
67514;SDS011;60646;55.802;37.032;2023-05-10T07:46:47;1.98;;;1.02;;
67514;SDS011;60646;55.802;37.032;2023-05-10T07:49:13;0.88;;;0.82;;
67514;SDS011;60646;55.802;37.032;2023-05-10T07:51:39;1.80;;;1.00;;
67514;SDS011;60646;55.802;37.032;2023-05-10T07:54:05;2.00;;;1.02;;
67514;SDS011;60646;55.802;37.032;2023-05-10T07:56:31;2.50;;;1.05;;
67514;SDS011;60646;55.802;37.032;2023-05-10T07:58:58;1.98;;;0.95;;
67514;SDS011;60646;55.802;37.032;2023-05-10T08:01:25;2.95;;;1.02;;
67514;SDS011;60646;55.802;37.032;2023-05-10T08:03:52;1.52;;;1.20;;
67514;SDS011;60646;55.802;37.032;2023-05-10T08:06:19;1.80;;;0.98;;
67514;SDS011;60646;55.802;37.032;2023-05-10T08:08:46;1.23;;;0.70;;
67514;SDS011;60646;55.802;37.032;2023-05-10T08:11:16;1.33;;;0.80;;
67514;SDS011;60646;55.802;37.032;2023-05-10T08:13:43;1.23;;;0.65;;
67514;SDS011;60646;55.802;37.032;2023-05-10T08:16:09;1.67;;;0.95;;
67514;SDS011;60646;55.802;37.032;2023-05-10T08:18:36;1.00;;;0.70;;
67514;SDS011;60646;55.802;37.032;2023-05-10T08:21:02;1.10;;;0.80;;
67514;SDS011;60646;55.802;37.032;2023-05-10T08:23:28;2.05;;;0.90;;
67514;SDS011;60646;55.802;37.032;2023-05-10T08:25:53;1.15;;;0.70;;
67514;SDS011;60646;55.802;37.032;2023-05-10T08:28:19;1.27;;;0.80;;
67514;SDS011;60646;55.802;37.032;2023-05-10T08:30:45;1.00;;;0.80;;
67514;SDS011;60646;55.802;37.032;2023-05-10T08:33:11;0.75;;;0.60;;
67514;SDS011;60646;55.802;37.032;2023-05-10T08:35:37;0.93;;;0.77;;
67514;SDS011;60646;55.802;37.032;2023-05-10T08:38:03;1.52;;;0.80;;
67514;SDS011;60646;55.802;37.032;2023-05-10T08:40:29;2.33;;;0.80;;
67514;SDS011;60646;55.802;37.032;2023-05-10T08:43:05;2.92;;;1.00;;
67514;SDS011;60646;55.802;37.032;2023-05-10T08:45:33;1.65;;;0.82;;
67514;SDS011;60646;55.802;37.032;2023-05-10T08:48:04;1.35;;;1.00;;
67514;SDS011;60646;55.802;37.032;2023-05-10T08:50:34;2.80;;;0.90;;
67514;SDS011;60646;55.802;37.032;2023-05-10T08:53:03;0.90;;;0.70;;
67514;SDS011;60646;55.802;37.032;2023-05-10T08:55:32;0.88;;;0.85;;
67514;SDS011;60646;55.802;37.032;2023-05-10T08:57:59;1.58;;;0.90;;
67514;SDS011;60646;55.802;37.032;2023-05-10T09:00:26;1.67;;;0.80;;
67514;SDS011;60646;55.802;37.032;2023-05-10T09:02:53;3.17;;;0.90;;
67514;SDS011;60646;55.802;37.032;2023-05-10T09:05:20;2.03;;;1.00;;
67514;SDS011;60646;55.802;37.032;2023-05-10T09:07:46;2.85;;;1.45;;
67514;SDS011;60646;55.802;37.032;2023-05-10T09:10:11;4.10;;;2.20;;
67514;SDS011;60646;55.802;37.032;2023-05-10T09:12:41;1.55;;;1.20;;
67514;SDS011;60646;55.802;37.032;2023-05-10T09:15:21;1.35;;;0.80;;
67514;SDS011;60646;55.802;37.032;2023-05-10T09:17:47;2.75;;;1.17;;
67514;SDS011;60646;55.802;37.032;2023-05-10T09:20:14;2.10;;;0.98;;
67514;SDS011;60646;55.802;37.032;2023-05-10T09:22:43;2.00;;;1.00;;
67514;SDS011;60646;55.802;37.032;2023-05-10T09:25:11;4.28;;;2.13;;
67514;SDS011;60646;55.802;37.032;2023-05-10T09:27:41;2.92;;;2.03;;
67514;SDS011;60646;55.802;37.032;2023-05-10T09:30:27;3.15;;;1.88;;
67514;SDS011;60646;55.802;37.032;2023-05-10T09:32:55;1.40;;;1.10;;
67514;SDS011;60646;55.802;37.032;2023-05-10T09:35:23;1.95;;;1.00;;
67514;SDS011;60646;55.802;37.032;2023-05-10T09:37:51;1.20;;;0.80;;
67514;SDS011;60646;55.802;37.032;2023-05-10T09:40:22;1.02;;;0.80;;
67514;SDS011;60646;55.802;37.032;2023-05-10T09:43:08;1.40;;;0.98;;
67514;SDS011;60646;55.802;37.032;2023-05-10T09:45:34;1.60;;;1.00;;
67514;SDS011;60646;55.802;37.032;2023-05-10T09:48:02;0.93;;;0.77;;
67514;SDS011;60646;55.802;37.032;2023-05-10T09:50:29;2.63;;;1.00;;
67514;SDS011;60646;55.802;37.032;2023-05-10T09:52:56;1.95;;;1.00;;
67514;SDS011;60646;55.802;37.032;2023-05-10T09:55:39;1.00;;;0.80;;
67514;SDS011;60646;55.802;37.032;2023-05-10T09:58:07;1.87;;;0.73;;
67514;SDS011;60646;55.802;37.032;2023-05-10T10:00:37;1.23;;;0.88;;
67514;SDS011;60646;55.802;37.032;2023-05-10T10:03:04;1.55;;;0.90;;
67514;SDS011;60646;55.802;37.032;2023-05-10T10:07:58;1.52;;;0.95;;
67514;SDS011;60646;55.802;37.032;2023-05-10T10:10:26;1.52;;;1.00;;
67514;SDS011;60646;55.802;37.032;2023-05-10T10:12:53;1.77;;;1.10;;
67514;SDS011;60646;55.802;37.032;2023-05-10T10:15:20;1.50;;;0.90;;
67514;SDS011;60646;55.802;37.032;2023-05-10T10:17:48;2.10;;;1.10;;
67514;SDS011;60646;55.802;37.032;2023-05-10T10:20:15;1.92;;;1.20;;
67514;SDS011;60646;55.802;37.032;2023-05-10T10:22:43;2.63;;;0.98;;
67514;SDS011;60646;55.802;37.032;2023-05-10T10:25:13;2.45;;;1.20;;
67514;SDS011;60646;55.802;37.032;2023-05-10T10:35:58;2.07;;;1.20;;
67514;SDS011;60646;55.802;37.032;2023-05-10T10:38:47;1.88;;;1.08;;
67514;SDS011;60646;55.802;37.032;2023-05-10T10:41:35;3.28;;;0.90;;
67514;SDS011;60646;55.802;37.032;2023-05-10T10:49:50;1.33;;;0.80;;
67514;SDS011;60646;55.802;37.032;2023-05-10T10:52:22;1.95;;;0.77;;
67514;SDS011;60646;55.802;37.032;2023-05-10T10:55:12;2.75;;;0.90;;
67514;SDS011;60646;55.802;37.032;2023-05-10T11:00:50;1.75;;;1.20;;
67514;SDS011;60646;55.802;37.032;2023-05-10T11:03:09;1.75;;;0.90;;
67514;SDS011;60646;55.802;37.032;2023-05-10T11:05:44;3.70;;;0.90;;
67514;SDS011;60646;55.802;37.032;2023-05-10T11:08:27;1.80;;;1.10;;
67514;SDS011;60646;55.802;37.032;2023-05-10T11:13:30;1.75;;;1.00;;
67514;SDS011;60646;55.802;37.032;2023-05-10T11:16:21;1.35;;;1.02;;
67514;SDS011;60646;55.802;37.032;2023-05-10T11:18:56;1.48;;;1.00;;
67514;SDS011;60646;55.802;37.032;2023-05-10T11:21:24;1.75;;;1.23;;
67514;SDS011;60646;55.802;37.032;2023-05-10T11:23:55;1.48;;;1.00;;
67514;SDS011;60646;55.802;37.032;2023-05-10T11:26:22;1.15;;;0.95;;
67514;SDS011;60646;55.802;37.032;2023-05-10T11:28:52;1.63;;;0.85;;
67514;SDS011;60646;55.802;37.032;2023-05-10T11:31:21;2.65;;;0.80;;
67514;SDS011;60646;55.802;37.032;2023-05-10T11:33:50;3.80;;;1.48;;
67514;SDS011;60646;55.802;37.032;2023-05-10T11:36:36;2.38;;;1.58;;
67514;SDS011;60646;55.802;37.032;2023-05-10T11:39:03;1.63;;;1.00;;
67514;SDS011;60646;55.802;37.032;2023-05-10T11:41:30;2.53;;;0.80;;
67514;SDS011;60646;55.802;37.032;2023-05-10T11:43:57;1.25;;;0.95;;
67514;SDS011;60646;55.802;37.032;2023-05-10T11:46:25;1.30;;;0.98;;
67514;SDS011;60646;55.802;37.032;2023-05-10T11:48:55;1.10;;;0.80;;
67514;SDS011;60646;55.802;37.032;2023-05-10T11:51:25;1.42;;;0.80;;
67514;SDS011;60646;55.802;37.032;2023-05-10T11:53:55;1.13;;;0.98;;
67514;SDS011;60646;55.802;37.032;2023-05-10T11:56:26;1.00;;;0.90;;
67514;SDS011;60646;55.802;37.032;2023-05-10T11:58:55;1.40;;;0.90;;
67514;SDS011;60646;55.802;37.032;2023-05-10T12:01:24;2.60;;;0.73;;
67514;SDS011;60646;55.802;37.032;2023-05-10T12:03:53;2.45;;;1.15;;
67514;SDS011;60646;55.802;37.032;2023-05-10T12:06:21;2.50;;;1.50;;
67514;SDS011;60646;55.802;37.032;2023-05-10T12:08:48;1.65;;;1.10;;
67514;SDS011;60646;55.802;37.032;2023-05-10T12:11:18;2.08;;;1.60;;
67514;SDS011;60646;55.802;37.032;2023-05-10T12:13:47;2.05;;;1.30;;
67514;SDS011;60646;55.802;37.032;2023-05-10T12:16:21;1.77;;;1.20;;
67514;SDS011;60646;55.802;37.032;2023-05-10T12:18:49;2.08;;;1.40;;
67514;SDS011;60646;55.802;37.032;2023-05-10T12:21:19;2.67;;;1.33;;
67514;SDS011;60646;55.802;37.032;2023-05-10T12:23:46;2.20;;;1.00;;
67514;SDS011;60646;55.802;37.032;2023-05-10T12:26:14;1.90;;;1.10;;
67514;SDS011;60646;55.802;37.032;2023-05-10T12:28:41;4.03;;;1.80;;
67514;SDS011;60646;55.802;37.032;2023-05-10T12:31:08;5.28;;;1.80;;
67514;SDS011;60646;55.802;37.032;2023-05-10T12:36:08;2.50;;;0.90;;
67514;SDS011;60646;55.802;37.032;2023-05-10T12:38:36;2.67;;;0.98;;
67514;SDS011;60646;55.802;37.032;2023-05-10T12:41:09;2.45;;;1.70;;
67514;SDS011;60646;55.802;37.032;2023-05-10T12:43:36;1.88;;;1.20;;
67514;SDS011;60646;55.802;37.032;2023-05-10T12:46:07;2.78;;;1.20;;
67514;SDS011;60646;55.802;37.032;2023-05-10T12:48:35;1.42;;;0.95;;
67514;SDS011;60646;55.802;37.032;2023-05-10T12:51:02;1.73;;;0.95;;
67514;SDS011;60646;55.802;37.032;2023-05-10T12:53:30;2.33;;;1.13;;
67514;SDS011;60646;55.802;37.032;2023-05-10T12:55:56;1.25;;;0.98;;
67514;SDS011;60646;55.802;37.032;2023-05-10T12:58:22;3.10;;;1.35;;
67514;SDS011;60646;55.802;37.032;2023-05-10T13:00:48;3.20;;;1.10;;
67514;SDS011;60646;55.802;37.032;2023-05-10T13:03:17;4.28;;;1.35;;
67514;SDS011;60646;55.802;37.032;2023-05-10T13:05:43;5.25;;;1.10;;
67514;SDS011;60646;55.802;37.032;2023-05-10T13:08:10;1.30;;;0.85;;
67514;SDS011;60646;55.802;37.032;2023-05-10T13:10:36;3.88;;;1.25;;
67514;SDS011;60646;55.802;37.032;2023-05-10T13:13:02;2.30;;;1.23;;
67514;SDS011;60646;55.802;37.032;2023-05-10T13:15:29;3.22;;;1.10;;
67514;SDS011;60646;55.802;37.032;2023-05-10T13:17:55;3.67;;;1.00;;
67514;SDS011;60646;55.802;37.032;2023-05-10T13:20:22;1.67;;;1.17;;
67514;SDS011;60646;55.802;37.032;2023-05-10T13:22:49;2.13;;;1.00;;
67514;SDS011;60646;55.802;37.032;2023-05-10T13:25:15;3.40;;;1.70;;
67514;SDS011;60646;55.802;37.032;2023-05-10T13:27:42;1.83;;;1.10;;
67514;SDS011;60646;55.802;37.032;2023-05-10T13:30:10;3.53;;;0.93;;
67514;SDS011;60646;55.802;37.032;2023-05-10T13:32:36;3.13;;;1.20;;
67514;SDS011;60646;55.802;37.032;2023-05-10T13:35:05;6.55;;;1.30;;
67514;SDS011;60646;55.802;37.032;2023-05-10T13:37:31;4.93;;;1.40;;
67514;SDS011;60646;55.802;37.032;2023-05-10T13:40:01;1.45;;;0.90;;
67514;SDS011;60646;55.802;37.032;2023-05-10T13:42:32;2.10;;;1.20;;
67514;SDS011;60646;55.802;37.032;2023-05-10T13:45:00;1.60;;;1.20;;
67514;SDS011;60646;55.802;37.032;2023-05-10T13:47:33;2.17;;;1.15;;
67514;SDS011;60646;55.802;37.032;2023-05-10T13:49:59;2.60;;;1.40;;
67514;SDS011;60646;55.802;37.032;2023-05-10T13:52:29;2.58;;;0.93;;
67514;SDS011;60646;55.802;37.032;2023-05-10T13:54:56;3.45;;;1.25;;
67514;SDS011;60646;55.802;37.032;2023-05-10T13:57:22;1.73;;;1.10;;
67514;SDS011;60646;55.802;37.032;2023-05-10T13:59:49;1.92;;;1.20;;
67514;SDS011;60646;55.802;37.032;2023-05-10T14:02:16;4.38;;;2.03;;
67514;SDS011;60646;55.802;37.032;2023-05-10T14:04:41;2.08;;;1.23;;
67514;SDS011;60646;55.802;37.032;2023-05-10T14:07:07;5.10;;;1.63;;
67514;SDS011;60646;55.802;37.032;2023-05-10T14:09:33;4.20;;;1.48;;
67514;SDS011;60646;55.802;37.032;2023-05-10T14:11:59;3.70;;;1.50;;
67514;SDS011;60646;55.802;37.032;2023-05-10T14:14:25;4.43;;;1.42;;
67514;SDS011;60646;55.802;37.032;2023-05-10T14:16:51;5.22;;;2.55;;
67514;SDS011;60646;55.802;37.032;2023-05-10T14:19:16;4.88;;;2.28;;
67514;SDS011;60646;55.802;37.032;2023-05-10T14:21:42;3.03;;;1.83;;
67514;SDS011;60646;55.802;37.032;2023-05-10T14:24:08;1.88;;;1.33;;
67514;SDS011;60646;55.802;37.032;2023-05-10T14:26:34;17.38;;;11.13;;
67514;SDS011;60646;55.802;37.032;2023-05-10T14:29:00;8.18;;;4.75;;
67514;SDS011;60646;55.802;37.032;2023-05-10T14:31:26;7.03;;;2.75;;
67514;SDS011;60646;55.802;37.032;2023-05-10T14:33:52;3.20;;;2.10;;
67514;SDS011;60646;55.802;37.032;2023-05-10T14:36:18;3.42;;;1.60;;
67514;SDS011;60646;55.802;37.032;2023-05-10T14:38:44;3.17;;;1.65;;
67514;SDS011;60646;55.802;37.032;2023-05-10T14:41:11;3.33;;;1.55;;
67514;SDS011;60646;55.802;37.032;2023-05-10T14:43:40;1.90;;;1.25;;
67514;SDS011;60646;55.802;37.032;2023-05-10T14:46:06;1.75;;;1.20;;
67514;SDS011;60646;55.802;37.032;2023-05-10T14:48:32;1.85;;;1.20;;
67514;SDS011;60646;55.802;37.032;2023-05-10T14:50:59;2.22;;;1.25;;
67514;SDS011;60646;55.802;37.032;2023-05-10T14:53:25;1.70;;;0.98;;
67514;SDS011;60646;55.802;37.032;2023-05-10T14:55:50;5.13;;;1.45;;
67514;SDS011;60646;55.802;37.032;2023-05-10T14:58:16;2.25;;;0.90;;
67514;SDS011;60646;55.802;37.032;2023-05-10T15:00:43;2.25;;;1.20;;
67514;SDS011;60646;55.802;37.032;2023-05-10T15:03:10;4.88;;;1.10;;
67514;SDS011;60646;55.802;37.032;2023-05-10T15:05:37;2.28;;;1.20;;
67514;SDS011;60646;55.802;37.032;2023-05-10T15:08:04;1.65;;;0.95;;
67514;SDS011;60646;55.802;37.032;2023-05-10T15:10:31;2.33;;;1.00;;
67514;SDS011;60646;55.802;37.032;2023-05-10T15:12:58;2.38;;;1.20;;
67514;SDS011;60646;55.802;37.032;2023-05-10T15:15:24;2.03;;;1.42;;
67514;SDS011;60646;55.802;37.032;2023-05-10T15:17:50;6.45;;;1.42;;